sensor_id;sensor_type;location;lat;lon;timestamp;temperature;humidity
9466;DHT22;4771;48.726;9.006;2024-02-21T00:00:54;7.70;99.90
9466;DHT22;4771;48.726;9.006;2024-02-21T00:03:21;7.50;99.90
9466;DHT22;4771;48.726;9.006;2024-02-21T00:05:48;7.70;99.90
9466;DHT22;4771;48.726;9.006;2024-02-21T00:08:15;7.70;99.90
9466;DHT22;4771;48.726;9.006;2024-02-21T00:10:42;7.70;99.90
9466;DHT22;4771;48.726;9.006;2024-02-21T00:13:10;7.30;99.90
9466;DHT22;4771;48.726;9.006;2024-02-21T00:15:37;7.70;99.90
9466;DHT22;4771;48.726;9.006;2024-02-21T00:18:04;7.70;99.90
9466;DHT22;4771;48.726;9.006;2024-02-21T00:20:31;7.70;99.90
9466;DHT22;4771;48.726;9.006;2024-02-21T00:22:58;7.60;99.90
9466;DHT22;4771;48.726;9.006;2024-02-21T00:25:25;7.70;99.90
9466;DHT22;4771;48.726;9.006;2024-02-21T00:27:51;7.70;99.90
9466;DHT22;4771;48.726;9.006;2024-02-21T00:30:20;7.70;99.90
9466;DHT22;4771;48.726;9.006;2024-02-21T00:32:47;7.70;99.90
9466;DHT22;4771;48.726;9.006;2024-02-21T00:35:14;7.60;99.90
9466;DHT22;4771;48.726;9.006;2024-02-21T00:37:41;7.60;99.90
9466;DHT22;4771;48.726;9.006;2024-02-21T00:40:08;7.60;99.90
9466;DHT22;4771;48.726;9.006;2024-02-21T00:42:36;7.60;99.90
9466;DHT22;4771;48.726;9.006;2024-02-21T00:45:03;7.60;99.90
9466;DHT22;4771;48.726;9.006;2024-02-21T00:47:32;7.60;99.90
9466;DHT22;4771;48.726;9.006;2024-02-21T00:49:59;7.70;99.90
9466;DHT22;4771;48.726;9.006;2024-02-21T00:52:25;7.70;99.90
9466;DHT22;4771;48.726;9.006;2024-02-21T00:54:52;7.70;99.90
9466;DHT22;4771;48.726;9.006;2024-02-21T00:57:19;7.70;99.90
9466;DHT22;4771;48.726;9.006;2024-02-21T00:59:46;7.70;99.90
9466;DHT22;4771;48.726;9.006;2024-02-21T01:02:13;7.70;99.90
9466;DHT22;4771;48.726;9.006;2024-02-21T01:04:41;7.80;99.90
9466;DHT22;4771;48.726;9.006;2024-02-21T01:07:08;7.70;99.90
9466;DHT22;4771;48.726;9.006;2024-02-21T01:09:35;7.80;99.90
9466;DHT22;4771;48.726;9.006;2024-02-21T01:12:02;7.70;99.90
9466;DHT22;4771;48.726;9.006;2024-02-21T01:14:29;7.50;99.90
9466;DHT22;4771;48.726;9.006;2024-02-21T01:16:56;7.60;99.90
9466;DHT22;4771;48.726;9.006;2024-02-21T01:19:23;7.60;99.90
9466;DHT22;4771;48.726;9.006;2024-02-21T01:21:51;7.60;99.90
9466;DHT22;4771;48.726;9.006;2024-02-21T01:24:18;7.60;99.90
9466;DHT22;4771;48.726;9.006;2024-02-21T01:26:45;7.60;99.90
9466;DHT22;4771;48.726;9.006;2024-02-21T01:29:12;7.60;99.90
9466;DHT22;4771;48.726;9.006;2024-02-21T01:31:38;7.60;99.90
9466;DHT22;4771;48.726;9.006;2024-02-21T01:34:05;7.70;99.90
9466;DHT22;4771;48.726;9.006;2024-02-21T01:36:32;7.70;99.90
9466;DHT22;4771;48.726;9.006;2024-02-21T01:39:00;7.70;99.90
9466;DHT22;4771;48.726;9.006;2024-02-21T01:41:29;7.70;99.90
9466;DHT22;4771;48.726;9.006;2024-02-21T01:43:56;7.70;99.90
9466;DHT22;4771;48.726;9.006;2024-02-21T01:46:23;7.70;99.90
9466;DHT22;4771;48.726;9.006;2024-02-21T01:48:53;7.70;99.90
9466;DHT22;4771;48.726;9.006;2024-02-21T01:51:20;7.80;99.90
9466;DHT22;4771;48.726;9.006;2024-02-21T01:53:50;7.80;99.90
9466;DHT22;4771;48.726;9.006;2024-02-21T01:56:19;7.70;99.90
9466;DHT22;4771;48.726;9.006;2024-02-21T01:58:47;7.70;99.90
9466;DHT22;4771;48.726;9.006;2024-02-21T02:01:14;7.80;99.90
9466;DHT22;4771;48.726;9.006;2024-02-21T02:03:42;7.70;99.90
9466;DHT22;4771;48.726;9.006;2024-02-21T02:06:11;7.70;99.90
9466;DHT22;4771;48.726;9.006;2024-02-21T02:08:39;7.70;99.90
9466;DHT22;4771;48.726;9.006;2024-02-21T02:11:06;7.70;99.90
9466;DHT22;4771;48.726;9.006;2024-02-21T02:13:34;7.70;99.90
9466;DHT22;4771;48.726;9.006;2024-02-21T02:16:01;7.70;99.90
9466;DHT22;4771;48.726;9.006;2024-02-21T02:18:29;7.70;99.90
9466;DHT22;4771;48.726;9.006;2024-02-21T02:20:56;7.70;99.90
9466;DHT22;4771;48.726;9.006;2024-02-21T02:23:25;7.70;99.90
9466;DHT22;4771;48.726;9.006;2024-02-21T02:25:52;7.70;99.90
9466;DHT22;4771;48.726;9.006;2024-02-21T02:28:20;7.70;99.90
9466;DHT22;4771;48.726;9.006;2024-02-21T02:30:47;7.70;99.90
9466;DHT22;4771;48.726;9.006;2024-02-21T02:33:14;7.70;99.90
9466;DHT22;4771;48.726;9.006;2024-02-21T02:35:43;7.80;99.90
9466;DHT22;4771;48.726;9.006;2024-02-21T02:38:10;7.70;99.90
9466;DHT22;4771;48.726;9.006;2024-02-21T02:40:39;7.70;99.90
9466;DHT22;4771;48.726;9.006;2024-02-21T02:43:06;7.70;99.90
9466;DHT22;4771;48.726;9.006;2024-02-21T02:45:33;7.70;99.90
9466;DHT22;4771;48.726;9.006;2024-02-21T02:48:00;7.60;99.90
9466;DHT22;4771;48.726;9.006;2024-02-21T02:50:27;7.60;99.90
9466;DHT22;4771;48.726;9.006;2024-02-21T02:52:54;7.70;99.90
9466;DHT22;4771;48.726;9.006;2024-02-21T02:55:22;7.60;99.90
9466;DHT22;4771;48.726;9.006;2024-02-21T02:57:50;7.60;99.90
9466;DHT22;4771;48.726;9.006;2024-02-21T03:00:17;7.50;99.90
9466;DHT22;4771;48.726;9.006;2024-02-21T03:02:46;7.60;99.90
9466;DHT22;4771;48.726;9.006;2024-02-21T03:05:14;7.50;99.90
9466;DHT22;4771;48.726;9.006;2024-02-21T03:07:42;7.60;99.90
9466;DHT22;4771;48.726;9.006;2024-02-21T03:10:09;7.60;99.90
9466;DHT22;4771;48.726;9.006;2024-02-21T03:12:37;7.50;99.90
9466;DHT22;4771;48.726;9.006;2024-02-21T03:15:06;7.50;99.90
9466;DHT22;4771;48.726;9.006;2024-02-21T03:17:33;7.40;99.90
9466;DHT22;4771;48.726;9.006;2024-02-21T03:20:01;7.50;99.90
9466;DHT22;4771;48.726;9.006;2024-02-21T03:22:30;7.30;99.90
9466;DHT22;4771;48.726;9.006;2024-02-21T03:24:57;7.40;99.90
9466;DHT22;4771;48.726;9.006;2024-02-21T03:27:24;7.30;99.90
9466;DHT22;4771;48.726;9.006;2024-02-21T03:29:51;7.30;99.90
9466;DHT22;4771;48.726;9.006;2024-02-21T03:32:19;7.30;99.90
9466;DHT22;4771;48.726;9.006;2024-02-21T03:34:46;7.40;99.90
9466;DHT22;4771;48.726;9.006;2024-02-21T03:37:13;7.40;99.90
9466;DHT22;4771;48.726;9.006;2024-02-21T03:39:40;7.40;99.90
9466;DHT22;4771;48.726;9.006;2024-02-21T03:42:07;7.40;99.90
9466;DHT22;4771;48.726;9.006;2024-02-21T03:44:34;7.40;99.90
9466;DHT22;4771;48.726;9.006;2024-02-21T03:47:01;7.40;99.90
9466;DHT22;4771;48.726;9.006;2024-02-21T03:49:29;7.40;99.90
9466;DHT22;4771;48.726;9.006;2024-02-21T03:51:56;7.40;99.90
9466;DHT22;4771;48.726;9.006;2024-02-21T03:54:23;7.40;99.90
9466;DHT22;4771;48.726;9.006;2024-02-21T03:56:50;7.40;99.90
9466;DHT22;4771;48.726;9.006;2024-02-21T03:59:16;7.30;99.90
9466;DHT22;4771;48.726;9.006;2024-02-21T04:01:43;7.30;99.90
9466;DHT22;4771;48.726;9.006;2024-02-21T04:04:10;7.30;99.90
9466;DHT22;4771;48.726;9.006;2024-02-21T04:06:46;7.30;99.90
9466;DHT22;4771;48.726;9.006;2024-02-21T04:09:13;7.30;99.90
9466;DHT22;4771;48.726;9.006;2024-02-21T04:11:40;7.30;99.90
9466;DHT22;4771;48.726;9.006;2024-02-21T04:14:07;7.30;99.90
9466;DHT22;4771;48.726;9.006;2024-02-21T04:16:34;7.30;99.90
9466;DHT22;4771;48.726;9.006;2024-02-21T04:19:01;7.30;99.90
9466;DHT22;4771;48.726;9.006;2024-02-21T04:21:28;7.30;99.90
9466;DHT22;4771;48.726;9.006;2024-02-21T04:23:56;7.30;99.90
9466;DHT22;4771;48.726;9.006;2024-02-21T04:26:24;7.30;99.90
9466;DHT22;4771;48.726;9.006;2024-02-21T04:28:51;7.30;99.90
9466;DHT22;4771;48.726;9.006;2024-02-21T04:31:18;7.30;99.90
9466;DHT22;4771;48.726;9.006;2024-02-21T04:33:44;7.30;99.90
9466;DHT22;4771;48.726;9.006;2024-02-21T04:36:11;7.30;99.90
9466;DHT22;4771;48.726;9.006;2024-02-21T04:38:38;7.40;99.90
9466;DHT22;4771;48.726;9.006;2024-02-21T04:41:07;7.40;99.90
9466;DHT22;4771;48.726;9.006;2024-02-21T04:43:34;7.40;99.90
9466;DHT22;4771;48.726;9.006;2024-02-21T04:46:01;7.30;99.90
9466;DHT22;4771;48.726;9.006;2024-02-21T04:48:28;7.30;99.90
9466;DHT22;4771;48.726;9.006;2024-02-21T04:50:55;7.30;99.90
9466;DHT22;4771;48.726;9.006;2024-02-21T04:53:22;7.30;99.90
9466;DHT22;4771;48.726;9.006;2024-02-21T04:55:49;7.30;99.90
9466;DHT22;4771;48.726;9.006;2024-02-21T04:58:17;7.30;99.90
9466;DHT22;4771;48.726;9.006;2024-02-21T05:00:44;7.40;99.90
9466;DHT22;4771;48.726;9.006;2024-02-21T05:03:10;7.30;99.90
9466;DHT22;4771;48.726;9.006;2024-02-21T05:05:37;7.30;99.90
9466;DHT22;4771;48.726;9.006;2024-02-21T05:08:04;7.30;99.90
9466;DHT22;4771;48.726;9.006;2024-02-21T05:10:31;7.20;99.90
9466;DHT22;4771;48.726;9.006;2024-02-21T05:12:58;7.20;99.90
9466;DHT22;4771;48.726;9.006;2024-02-21T05:15:26;7.20;99.90
9466;DHT22;4771;48.726;9.006;2024-02-21T05:17:54;7.10;99.90
9466;DHT22;4771;48.726;9.006;2024-02-21T05:20:21;7.10;99.90
9466;DHT22;4771;48.726;9.006;2024-02-21T05:22:48;6.80;99.90
9466;DHT22;4771;48.726;9.006;2024-02-21T05:25:15;7.00;99.90
9466;DHT22;4771;48.726;9.006;2024-02-21T05:27:41;7.10;99.90
9466;DHT22;4771;48.726;9.006;2024-02-21T05:30:09;6.90;99.90
9466;DHT22;4771;48.726;9.006;2024-02-21T05:32:38;7.00;99.90
9466;DHT22;4771;48.726;9.006;2024-02-21T05:35:05;7.00;99.90
9466;DHT22;4771;48.726;9.006;2024-02-21T05:37:31;7.00;99.90
9466;DHT22;4771;48.726;9.006;2024-02-21T05:39:58;6.90;99.90
9466;DHT22;4771;48.726;9.006;2024-02-21T05:42:25;6.90;99.90
9466;DHT22;4771;48.726;9.006;2024-02-21T05:44:52;6.90;99.90
9466;DHT22;4771;48.726;9.006;2024-02-21T05:47:19;6.90;99.90
9466;DHT22;4771;48.726;9.006;2024-02-21T05:49:47;6.90;99.90
9466;DHT22;4771;48.726;9.006;2024-02-21T05:52:14;6.90;99.90
9466;DHT22;4771;48.726;9.006;2024-02-21T05:54:41;7.00;99.90
9466;DHT22;4771;48.726;9.006;2024-02-21T05:57:08;6.90;99.90
9466;DHT22;4771;48.726;9.006;2024-02-21T05:59:37;7.00;99.90
9466;DHT22;4771;48.726;9.006;2024-02-21T06:02:05;7.00;99.90
9466;DHT22;4771;48.726;9.006;2024-02-21T06:04:32;7.00;99.90
9466;DHT22;4771;48.726;9.006;2024-02-21T06:07:00;7.00;99.90
9466;DHT22;4771;48.726;9.006;2024-02-21T06:09:28;7.00;99.90
9466;DHT22;4771;48.726;9.006;2024-02-21T06:11:54;6.90;99.90
9466;DHT22;4771;48.726;9.006;2024-02-21T06:14:21;6.90;99.90
9466;DHT22;4771;48.726;9.006;2024-02-21T06:16:48;6.80;99.90
9466;DHT22;4771;48.726;9.006;2024-02-21T06:19:15;6.80;99.90
9466;DHT22;4771;48.726;9.006;2024-02-21T06:21:42;6.80;99.90
9466;DHT22;4771;48.726;9.006;2024-02-21T06:24:10;6.80;99.90
9466;DHT22;4771;48.726;9.006;2024-02-21T06:26:38;6.80;99.90
9466;DHT22;4771;48.726;9.006;2024-02-21T06:29:05;6.80;99.90
9466;DHT22;4771;48.726;9.006;2024-02-21T06:31:32;6.70;99.90
9466;DHT22;4771;48.726;9.006;2024-02-21T06:33:59;6.70;99.90
9466;DHT22;4771;48.726;9.006;2024-02-21T06:36:26;6.70;99.90
9466;DHT22;4771;48.726;9.006;2024-02-21T06:38:53;6.70;99.90
9466;DHT22;4771;48.726;9.006;2024-02-21T06:41:21;6.70;99.90
9466;DHT22;4771;48.726;9.006;2024-02-21T06:43:48;6.60;99.90
9466;DHT22;4771;48.726;9.006;2024-02-21T06:46:23;6.60;99.90
9466;DHT22;4771;48.726;9.006;2024-02-21T06:48:50;6.60;99.90
9466;DHT22;4771;48.726;9.006;2024-02-21T06:51:17;6.60;99.90
9466;DHT22;4771;48.726;9.006;2024-02-21T06:53:44;6.70;99.90
9466;DHT22;4771;48.726;9.006;2024-02-21T06:56:11;6.70;99.90
9466;DHT22;4771;48.726;9.006;2024-02-21T06:58:39;6.70;99.90
9466;DHT22;4771;48.726;9.006;2024-02-21T07:01:07;6.70;99.90
9466;DHT22;4771;48.726;9.006;2024-02-21T07:03:34;6.70;99.90
9466;DHT22;4771;48.726;9.006;2024-02-21T07:06:01;6.70;99.90
9466;DHT22;4771;48.726;9.006;2024-02-21T07:08:28;6.80;99.90
9466;DHT22;4771;48.726;9.006;2024-02-21T07:10:54;6.80;99.90
9466;DHT22;4771;48.726;9.006;2024-02-21T07:13:21;6.80;99.90
9466;DHT22;4771;48.726;9.006;2024-02-21T07:15:50;6.80;99.90
9466;DHT22;4771;48.726;9.006;2024-02-21T07:18:17;6.90;99.90
9466;DHT22;4771;48.726;9.006;2024-02-21T07:20:43;6.90;99.90
9466;DHT22;4771;48.726;9.006;2024-02-21T07:23:10;7.00;99.90
9466;DHT22;4771;48.726;9.006;2024-02-21T07:25:37;6.90;99.90
9466;DHT22;4771;48.726;9.006;2024-02-21T07:28:05;7.00;99.90
9466;DHT22;4771;48.726;9.006;2024-02-21T07:30:32;7.00;99.90
9466;DHT22;4771;48.726;9.006;2024-02-21T07:33:00;7.00;99.90
9466;DHT22;4771;48.726;9.006;2024-02-21T07:35:27;7.10;99.90
9466;DHT22;4771;48.726;9.006;2024-02-21T07:37:54;7.10;99.90
9466;DHT22;4771;48.726;9.006;2024-02-21T07:40:21;7.20;99.90
9466;DHT22;4771;48.726;9.006;2024-02-21T07:42:48;7.20;99.90
9466;DHT22;4771;48.726;9.006;2024-02-21T07:45:15;7.30;99.90
9466;DHT22;4771;48.726;9.006;2024-02-21T07:47:43;7.30;99.90
9466;DHT22;4771;48.726;9.006;2024-02-21T07:50:11;7.30;99.90
9466;DHT22;4771;48.726;9.006;2024-02-21T07:52:38;7.40;99.90
9466;DHT22;4771;48.726;9.006;2024-02-21T07:55:05;7.40;99.90
9466;DHT22;4771;48.726;9.006;2024-02-21T07:57:32;7.40;99.90
9466;DHT22;4771;48.726;9.006;2024-02-21T07:59:59;7.40;99.90
9466;DHT22;4771;48.726;9.006;2024-02-21T08:02:26;7.40;99.90
9466;DHT22;4771;48.726;9.006;2024-02-21T08:04:53;7.50;99.90
9466;DHT22;4771;48.726;9.006;2024-02-21T08:07:21;7.50;99.90
9466;DHT22;4771;48.726;9.006;2024-02-21T08:09:48;7.50;99.90
9466;DHT22;4771;48.726;9.006;2024-02-21T08:12:14;7.50;99.90
9466;DHT22;4771;48.726;9.006;2024-02-21T08:14:41;7.60;99.90
9466;DHT22;4771;48.726;9.006;2024-02-21T08:17:09;7.60;99.90
9466;DHT22;4771;48.726;9.006;2024-02-21T08:19:36;7.60;99.90
9466;DHT22;4771;48.726;9.006;2024-02-21T08:22:03;7.60;99.90
9466;DHT22;4771;48.726;9.006;2024-02-21T08:24:31;7.70;99.90
9466;DHT22;4771;48.726;9.006;2024-02-21T08:26:58;7.70;99.90
9466;DHT22;4771;48.726;9.006;2024-02-21T08:29:25;7.80;99.90
9466;DHT22;4771;48.726;9.006;2024-02-21T08:31:53;7.80;99.90
9466;DHT22;4771;48.726;9.006;2024-02-21T08:34:20;7.90;99.90
9466;DHT22;4771;48.726;9.006;2024-02-21T08:36:47;7.90;99.90
9466;DHT22;4771;48.726;9.006;2024-02-21T08:39:14;8.00;99.90
9466;DHT22;4771;48.726;9.006;2024-02-21T08:41:43;7.90;99.90
9466;DHT22;4771;48.726;9.006;2024-02-21T08:44:10;8.00;99.90
9466;DHT22;4771;48.726;9.006;2024-02-21T08:46:37;8.00;99.90
9466;DHT22;4771;48.726;9.006;2024-02-21T08:49:05;8.00;99.90
9466;DHT22;4771;48.726;9.006;2024-02-21T08:51:32;8.00;99.90
9466;DHT22;4771;48.726;9.006;2024-02-21T08:54:00;8.00;99.90
9466;DHT22;4771;48.726;9.006;2024-02-21T08:56:27;8.10;99.90
9466;DHT22;4771;48.726;9.006;2024-02-21T08:58:57;8.10;99.90
9466;DHT22;4771;48.726;9.006;2024-02-21T09:01:24;8.20;99.90
9466;DHT22;4771;48.726;9.006;2024-02-21T09:03:51;8.20;99.90
9466;DHT22;4771;48.726;9.006;2024-02-21T09:06:19;8.20;99.90
9466;DHT22;4771;48.726;9.006;2024-02-21T09:08:46;8.20;99.90
9466;DHT22;4771;48.726;9.006;2024-02-21T09:11:13;8.20;99.90
9466;DHT22;4771;48.726;9.006;2024-02-21T09:13:40;8.30;99.90
9466;DHT22;4771;48.726;9.006;2024-02-21T09:16:08;8.30;99.90
9466;DHT22;4771;48.726;9.006;2024-02-21T09:18:35;8.30;99.90
9466;DHT22;4771;48.726;9.006;2024-02-21T09:21:03;8.40;99.90
9466;DHT22;4771;48.726;9.006;2024-02-21T09:23:29;8.40;99.90
9466;DHT22;4771;48.726;9.006;2024-02-21T09:25:57;8.40;99.90
9466;DHT22;4771;48.726;9.006;2024-02-21T09:28:26;8.50;99.90
9466;DHT22;4771;48.726;9.006;2024-02-21T09:30:52;8.60;99.90
9466;DHT22;4771;48.726;9.006;2024-02-21T09:33:21;8.70;99.90
9466;DHT22;4771;48.726;9.006;2024-02-21T09:35:48;8.80;99.90
9466;DHT22;4771;48.726;9.006;2024-02-21T09:38:15;8.90;99.90
9466;DHT22;4771;48.726;9.006;2024-02-21T09:40:42;9.00;99.90
9466;DHT22;4771;48.726;9.006;2024-02-21T09:43:09;9.10;99.90
9466;DHT22;4771;48.726;9.006;2024-02-21T09:45:37;9.20;99.90
9466;DHT22;4771;48.726;9.006;2024-02-21T09:48:33;9.20;99.90
9466;DHT22;4771;48.726;9.006;2024-02-21T09:51:02;9.30;99.90
9466;DHT22;4771;48.726;9.006;2024-02-21T09:53:31;9.60;99.90
9466;DHT22;4771;48.726;9.006;2024-02-21T09:55:59;9.40;99.90
9466;DHT22;4771;48.726;9.006;2024-02-21T09:58:27;9.50;99.90
9466;DHT22;4771;48.726;9.006;2024-02-21T10:00:54;9.60;99.90
9466;DHT22;4771;48.726;9.006;2024-02-21T10:03:23;9.60;99.90
9466;DHT22;4771;48.726;9.006;2024-02-21T10:05:51;9.80;99.90
9466;DHT22;4771;48.726;9.006;2024-02-21T10:08:19;9.80;99.90
9466;DHT22;4771;48.726;9.006;2024-02-21T10:10:46;9.80;99.90
9466;DHT22;4771;48.726;9.006;2024-02-21T10:13:24;9.90;99.90
9466;DHT22;4771;48.726;9.006;2024-02-21T10:16:01;9.90;99.90
9466;DHT22;4771;48.726;9.006;2024-02-21T10:18:28;10.00;99.90
9466;DHT22;4771;48.726;9.006;2024-02-21T10:21:06;10.10;99.90
9466;DHT22;4771;48.726;9.006;2024-02-21T10:23:43;10.10;99.90
9466;DHT22;4771;48.726;9.006;2024-02-21T10:26:11;10.10;99.90
9466;DHT22;4771;48.726;9.006;2024-02-21T10:28:38;10.20;99.90
9466;DHT22;4771;48.726;9.006;2024-02-21T10:31:08;10.30;99.90
9466;DHT22;4771;48.726;9.006;2024-02-21T10:33:35;10.30;99.90
9466;DHT22;4771;48.726;9.006;2024-02-21T10:36:08;10.40;99.90
9466;DHT22;4771;48.726;9.006;2024-02-21T10:38:36;10.40;99.90
9466;DHT22;4771;48.726;9.006;2024-02-21T10:41:05;10.50;99.90
9466;DHT22;4771;48.726;9.006;2024-02-21T10:43:37;10.50;99.90
9466;DHT22;4771;48.726;9.006;2024-02-21T10:46:06;10.60;99.90
9466;DHT22;4771;48.726;9.006;2024-02-21T10:48:42;10.60;99.90
9466;DHT22;4771;48.726;9.006;2024-02-21T10:51:15;10.60;99.90
9466;DHT22;4771;48.726;9.006;2024-02-21T10:53:53;10.70;99.90
9466;DHT22;4771;48.726;9.006;2024-02-21T10:56:26;10.80;99.90
9466;DHT22;4771;48.726;9.006;2024-02-21T10:58:55;10.80;99.90
9466;DHT22;4771;48.726;9.006;2024-02-21T11:01:24;10.90;99.90
9466;DHT22;4771;48.726;9.006;2024-02-21T11:03:53;10.90;99.90
9466;DHT22;4771;48.726;9.006;2024-02-21T11:06:22;10.90;99.90
9466;DHT22;4771;48.726;9.006;2024-02-21T11:09:02;10.90;99.90
9466;DHT22;4771;48.726;9.006;2024-02-21T11:11:32;10.90;99.90
9466;DHT22;4771;48.726;9.006;2024-02-21T11:14:09;10.90;99.90
9466;DHT22;4771;48.726;9.006;2024-02-21T11:16:37;10.90;99.90
9466;DHT22;4771;48.726;9.006;2024-02-21T11:19:07;11.00;99.90
9466;DHT22;4771;48.726;9.006;2024-02-21T11:21:37;11.00;99.90
9466;DHT22;4771;48.726;9.006;2024-02-21T11:24:05;11.00;99.90
9466;DHT22;4771;48.726;9.006;2024-02-21T11:26:32;11.10;99.70
9466;DHT22;4771;48.726;9.006;2024-02-21T11:29:00;11.10;98.90
9466;DHT22;4771;48.726;9.006;2024-02-21T11:31:38;11.10;98.60
9466;DHT22;4771;48.726;9.006;2024-02-21T11:34:09;11.20;98.50
9466;DHT22;4771;48.726;9.006;2024-02-21T11:36:46;11.10;98.10
9466;DHT22;4771;48.726;9.006;2024-02-21T11:39:18;11.20;98.30
9466;DHT22;4771;48.726;9.006;2024-02-21T11:41:46;11.10;97.70
9466;DHT22;4771;48.726;9.006;2024-02-21T11:44:13;11.20;98.10
9466;DHT22;4771;48.726;9.006;2024-02-21T11:46:40;11.20;98.60
9466;DHT22;4771;48.726;9.006;2024-02-21T11:49:06;11.30;98.20
9466;DHT22;4771;48.726;9.006;2024-02-21T11:51:34;11.30;97.70
9466;DHT22;4771;48.726;9.006;2024-02-21T11:54:03;11.30;97.70
9466;DHT22;4771;48.726;9.006;2024-02-21T11:56:30;11.30;97.60
9466;DHT22;4771;48.726;9.006;2024-02-21T11:58:59;11.30;96.70
9466;DHT22;4771;48.726;9.006;2024-02-21T12:01:26;11.40;97.10
9466;DHT22;4771;48.726;9.006;2024-02-21T12:03:52;11.40;96.80
9466;DHT22;4771;48.726;9.006;2024-02-21T12:06:21;11.40;97.30
9466;DHT22;4771;48.726;9.006;2024-02-21T12:08:48;11.50;97.40
9466;DHT22;4771;48.726;9.006;2024-02-21T12:11:22;11.60;97.90
9466;DHT22;4771;48.726;9.006;2024-02-21T12:13:59;11.60;96.70
9466;DHT22;4771;48.726;9.006;2024-02-21T12:16:29;11.60;97.60
9466;DHT22;4771;48.726;9.006;2024-02-21T12:18:56;11.70;96.40
9466;DHT22;4771;48.726;9.006;2024-02-21T12:21:30;11.80;96.00
9466;DHT22;4771;48.726;9.006;2024-02-21T12:23:58;11.80;96.00
9466;DHT22;4771;48.726;9.006;2024-02-21T12:26:26;11.90;96.20
9466;DHT22;4771;48.726;9.006;2024-02-21T12:28:53;11.90;95.00
9466;DHT22;4771;48.726;9.006;2024-02-21T12:31:21;11.90;94.90
9466;DHT22;4771;48.726;9.006;2024-02-21T12:33:48;12.00;95.50
9466;DHT22;4771;48.726;9.006;2024-02-21T12:36:15;12.00;94.90
9466;DHT22;4771;48.726;9.006;2024-02-21T12:38:41;12.00;94.10
9466;DHT22;4771;48.726;9.006;2024-02-21T12:41:09;12.00;93.90
9466;DHT22;4771;48.726;9.006;2024-02-21T12:43:37;12.00;93.80
9466;DHT22;4771;48.726;9.006;2024-02-21T12:46:04;12.00;93.60
9466;DHT22;4771;48.726;9.006;2024-02-21T12:48:32;12.00;93.30
9466;DHT22;4771;48.726;9.006;2024-02-21T12:50:59;12.10;92.70
9466;DHT22;4771;48.726;9.006;2024-02-21T12:53:26;12.00;92.30
9466;DHT22;4771;48.726;9.006;2024-02-21T12:55:53;12.00;91.90
9466;DHT22;4771;48.726;9.006;2024-02-21T12:58:20;12.10;91.60
9466;DHT22;4771;48.726;9.006;2024-02-21T13:00:49;12.10;90.50
9466;DHT22;4771;48.726;9.006;2024-02-21T13:03:16;12.10;90.60
9466;DHT22;4771;48.726;9.006;2024-02-21T13:05:43;12.10;89.30
9466;DHT22;4771;48.726;9.006;2024-02-21T13:08:10;12.10;88.30
9466;DHT22;4771;48.726;9.006;2024-02-21T13:10:37;12.10;87.90
9466;DHT22;4771;48.726;9.006;2024-02-21T13:13:04;12.10;87.20
9466;DHT22;4771;48.726;9.006;2024-02-21T13:15:31;12.10;86.90
9466;DHT22;4771;48.726;9.006;2024-02-21T13:17:59;12.10;85.60
9466;DHT22;4771;48.726;9.006;2024-02-21T13:20:26;12.20;84.70
9466;DHT22;4771;48.726;9.006;2024-02-21T13:22:54;12.10;83.60
9466;DHT22;4771;48.726;9.006;2024-02-21T13:25:20;12.20;84.30
9466;DHT22;4771;48.726;9.006;2024-02-21T13:27:47;12.20;83.30
9466;DHT22;4771;48.726;9.006;2024-02-21T13:30:14;12.30;82.90
9466;DHT22;4771;48.726;9.006;2024-02-21T13:32:43;12.30;83.20
9466;DHT22;4771;48.726;9.006;2024-02-21T13:35:13;12.30;81.90
9466;DHT22;4771;48.726;9.006;2024-02-21T13:37:40;12.40;80.90
9466;DHT22;4771;48.726;9.006;2024-02-21T13:40:08;12.40;80.80
9466;DHT22;4771;48.726;9.006;2024-02-21T13:42:35;12.30;77.00
9466;DHT22;4771;48.726;9.006;2024-02-21T13:45:03;12.40;77.10
9466;DHT22;4771;48.726;9.006;2024-02-21T13:47:31;12.30;73.80
9466;DHT22;4771;48.726;9.006;2024-02-21T13:49:58;12.30;74.90
9466;DHT22;4771;48.726;9.006;2024-02-21T13:52:26;12.30;76.70
9466;DHT22;4771;48.726;9.006;2024-02-21T13:54:53;12.30;76.30
9466;DHT22;4771;48.726;9.006;2024-02-21T13:57:20;12.30;75.80
9466;DHT22;4771;48.726;9.006;2024-02-21T13:59:46;12.30;73.70
9466;DHT22;4771;48.726;9.006;2024-02-21T14:02:13;12.30;75.10
9466;DHT22;4771;48.726;9.006;2024-02-21T14:04:40;12.30;70.40
9466;DHT22;4771;48.726;9.006;2024-02-21T14:07:07;12.30;69.90
9466;DHT22;4771;48.726;9.006;2024-02-21T14:09:36;12.30;70.00
9466;DHT22;4771;48.726;9.006;2024-02-21T14:12:03;12.30;69.10
9466;DHT22;4771;48.726;9.006;2024-02-21T14:14:33;12.30;66.60
9466;DHT22;4771;48.726;9.006;2024-02-21T14:17:00;12.20;64.40
9466;DHT22;4771;48.726;9.006;2024-02-21T14:19:27;12.20;65.90
9466;DHT22;4771;48.726;9.006;2024-02-21T14:21:54;12.20;66.80
9466;DHT22;4771;48.726;9.006;2024-02-21T14:24:22;12.20;66.70
9466;DHT22;4771;48.726;9.006;2024-02-21T14:26:50;12.20;63.90
9466;DHT22;4771;48.726;9.006;2024-02-21T14:29:17;12.20;64.50
9466;DHT22;4771;48.726;9.006;2024-02-21T14:31:44;12.20;61.70
9466;DHT22;4771;48.726;9.006;2024-02-21T14:34:10;12.20;59.30
9466;DHT22;4771;48.726;9.006;2024-02-21T14:36:37;12.20;59.50
9466;DHT22;4771;48.726;9.006;2024-02-21T14:39:06;12.20;58.30
9466;DHT22;4771;48.726;9.006;2024-02-21T14:41:33;12.10;57.80
9466;DHT22;4771;48.726;9.006;2024-02-21T14:44:02;12.10;56.10
9466;DHT22;4771;48.726;9.006;2024-02-21T14:46:29;12.10;57.10
9466;DHT22;4771;48.726;9.006;2024-02-21T14:48:56;12.10;58.10
9466;DHT22;4771;48.726;9.006;2024-02-21T14:51:23;12.10;54.90
9466;DHT22;4771;48.726;9.006;2024-02-21T14:53:50;12.00;55.70
9466;DHT22;4771;48.726;9.006;2024-02-21T14:56:16;12.00;55.90
9466;DHT22;4771;48.726;9.006;2024-02-21T14:58:43;12.10;54.30
9466;DHT22;4771;48.726;9.006;2024-02-21T15:01:14;12.00;54.80
9466;DHT22;4771;48.726;9.006;2024-02-21T15:03:41;12.00;56.10
9466;DHT22;4771;48.726;9.006;2024-02-21T15:06:08;12.00;57.20
9466;DHT22;4771;48.726;9.006;2024-02-21T15:08:35;11.90;57.90
9466;DHT22;4771;48.726;9.006;2024-02-21T15:11:02;12.00;58.10
9466;DHT22;4771;48.726;9.006;2024-02-21T15:13:29;11.90;56.60
9466;DHT22;4771;48.726;9.006;2024-02-21T15:15:56;11.90;57.70
9466;DHT22;4771;48.726;9.006;2024-02-21T15:18:25;11.90;58.50
9466;DHT22;4771;48.726;9.006;2024-02-21T15:20:52;11.90;59.80
9466;DHT22;4771;48.726;9.006;2024-02-21T15:23:18;11.90;59.90
9466;DHT22;4771;48.726;9.006;2024-02-21T15:25:45;11.90;60.30
9466;DHT22;4771;48.726;9.006;2024-02-21T15:28:12;11.90;60.60
9466;DHT22;4771;48.726;9.006;2024-02-21T15:30:39;11.90;61.00
9466;DHT22;4771;48.726;9.006;2024-02-21T15:33:06;12.00;61.10
9466;DHT22;4771;48.726;9.006;2024-02-21T15:35:35;11.90;61.40
9466;DHT22;4771;48.726;9.006;2024-02-21T15:38:01;12.00;61.10
9466;DHT22;4771;48.726;9.006;2024-02-21T15:40:29;11.90;61.20
9466;DHT22;4771;48.726;9.006;2024-02-21T15:42:56;11.90;61.90
9466;DHT22;4771;48.726;9.006;2024-02-21T15:45:23;11.90;63.50
9466;DHT22;4771;48.726;9.006;2024-02-21T15:47:50;11.80;65.40
9466;DHT22;4771;48.726;9.006;2024-02-21T15:50:16;11.80;66.20
9466;DHT22;4771;48.726;9.006;2024-02-21T15:52:46;11.80;67.50
9466;DHT22;4771;48.726;9.006;2024-02-21T15:55:13;11.90;68.30
9466;DHT22;4771;48.726;9.006;2024-02-21T15:57:40;11.80;70.40
9466;DHT22;4771;48.726;9.006;2024-02-21T16:00:07;11.80;72.20
9466;DHT22;4771;48.726;9.006;2024-02-21T16:02:37;11.80;73.10
9466;DHT22;4771;48.726;9.006;2024-02-21T16:05:07;11.80;75.00
9466;DHT22;4771;48.726;9.006;2024-02-21T16:07:35;11.80;77.00
9466;DHT22;4771;48.726;9.006;2024-02-21T16:10:05;11.80;78.40
9466;DHT22;4771;48.726;9.006;2024-02-21T16:12:33;11.80;79.70
9466;DHT22;4771;48.726;9.006;2024-02-21T16:15:00;11.80;80.90